sensor_id;sensor_type;location;lat;lon;timestamp;P1;durP1;ratioP1;P2;durP2;ratioP2
57107;SDS011;42987;52.916;6.542;2022-07-23T00:01:27;5.75;;;4.05;;
57107;SDS011;42987;52.916;6.542;2022-07-23T00:03:54;9.02;;;5.25;;
57107;SDS011;42987;52.916;6.542;2022-07-23T00:06:20;5.30;;;4.35;;
57107;SDS011;42987;52.916;6.542;2022-07-23T00:08:50;6.40;;;4.57;;
57107;SDS011;42987;52.916;6.542;2022-07-23T00:11:16;6.40;;;3.28;;
57107;SDS011;42987;52.916;6.542;2022-07-23T00:13:42;5.72;;;3.90;;
57107;SDS011;42987;52.916;6.542;2022-07-23T00:16:08;5.20;;;4.43;;
57107;SDS011;42987;52.916;6.542;2022-07-23T00:18:34;5.18;;;3.97;;
57107;SDS011;42987;52.916;6.542;2022-07-23T00:21:00;5.35;;;3.40;;
57107;SDS011;42987;52.916;6.542;2022-07-23T00:23:26;5.93;;;3.92;;
57107;SDS011;42987;52.916;6.542;2022-07-23T00:25:53;5.43;;;3.95;;
57107;SDS011;42987;52.916;6.542;2022-07-23T00:28:19;6.40;;;4.43;;
57107;SDS011;42987;52.916;6.542;2022-07-23T00:30:45;4.85;;;4.22;;
57107;SDS011;42987;52.916;6.542;2022-07-23T00:33:11;5.43;;;4.22;;
57107;SDS011;42987;52.916;6.542;2022-07-23T00:35:37;6.47;;;4.13;;
57107;SDS011;42987;52.916;6.542;2022-07-23T00:38:08;5.43;;;4.07;;
57107;SDS011;42987;52.916;6.542;2022-07-23T00:40:35;5.07;;;3.83;;
57107;SDS011;42987;52.916;6.542;2022-07-23T00:43:01;7.22;;;5.18;;
57107;SDS011;42987;52.916;6.542;2022-07-23T00:45:28;8.32;;;5.82;;
57107;SDS011;42987;52.916;6.542;2022-07-23T00:47:54;9.27;;;5.30;;
57107;SDS011;42987;52.916;6.542;2022-07-23T00:50:20;10.02;;;6.55;;
57107;SDS011;42987;52.916;6.542;2022-07-23T00:52:46;6.55;;;4.90;;
57107;SDS011;42987;52.916;6.542;2022-07-23T00:55:12;7.68;;;6.22;;
57107;SDS011;42987;52.916;6.542;2022-07-23T00:57:38;9.40;;;6.20;;
57107;SDS011;42987;52.916;6.542;2022-07-23T01:00:05;9.93;;;6.20;;
57107;SDS011;42987;52.916;6.542;2022-07-23T01:02:35;7.65;;;5.53;;
57107;SDS011;42987;52.916;6.542;2022-07-23T01:05:01;7.38;;;5.07;;
57107;SDS011;42987;52.916;6.542;2022-07-23T01:07:29;9.18;;;6.65;;
57107;SDS011;42987;52.916;6.542;2022-07-23T01:09:55;9.45;;;6.53;;
57107;SDS011;42987;52.916;6.542;2022-07-23T01:12:21;13.00;;;6.47;;
57107;SDS011;42987;52.916;6.542;2022-07-23T01:14:57;20.85;;;8.18;;
57107;SDS011;42987;52.916;6.542;2022-07-23T01:17:24;13.88;;;6.85;;
57107;SDS011;42987;52.916;6.542;2022-07-23T01:19:50;9.45;;;7.32;;
57107;SDS011;42987;52.916;6.542;2022-07-23T01:22:17;8.70;;;6.45;;
57107;SDS011;42987;52.916;6.542;2022-07-23T01:24:45;7.20;;;5.78;;
57107;SDS011;42987;52.916;6.542;2022-07-23T01:27:11;9.07;;;5.68;;
57107;SDS011;42987;52.916;6.542;2022-07-23T01:29:38;11.77;;;7.78;;
57107;SDS011;42987;52.916;6.542;2022-07-23T01:32:04;7.97;;;6.25;;
57107;SDS011;42987;52.916;6.542;2022-07-23T01:34:31;12.20;;;7.95;;
57107;SDS011;42987;52.916;6.542;2022-07-23T01:36:56;5.18;;;4.57;;
57107;SDS011;42987;52.916;6.542;2022-07-23T01:39:22;6.78;;;5.78;;
57107;SDS011;42987;52.916;6.542;2022-07-23T01:41:48;7.15;;;5.05;;
57107;SDS011;42987;52.916;6.542;2022-07-23T01:44:14;6.00;;;4.60;;
57107;SDS011;42987;52.916;6.542;2022-07-23T01:46:40;6.85;;;5.03;;
57107;SDS011;42987;52.916;6.542;2022-07-23T01:49:06;6.97;;;4.95;;
57107;SDS011;42987;52.916;6.542;2022-07-23T01:51:32;9.95;;;5.57;;
57107;SDS011;42987;52.916;6.542;2022-07-23T01:53:57;6.45;;;5.18;;
57107;SDS011;42987;52.916;6.542;2022-07-23T01:56:23;6.90;;;5.18;;
57107;SDS011;42987;52.916;6.542;2022-07-23T01:58:49;5.78;;;5.18;;
57107;SDS011;42987;52.916;6.542;2022-07-23T02:01:15;7.20;;;5.05;;
57107;SDS011;42987;52.916;6.542;2022-07-23T02:03:40;6.13;;;5.38;;
57107;SDS011;42987;52.916;6.542;2022-07-23T02:06:06;6.07;;;4.85;;
57107;SDS011;42987;52.916;6.542;2022-07-23T02:08:32;5.47;;;4.60;;
57107;SDS011;42987;52.916;6.542;2022-07-23T02:10:58;4.85;;;4.20;;
57107;SDS011;42987;52.916;6.542;2022-07-23T02:13:24;5.70;;;4.40;;
57107;SDS011;42987;52.916;6.542;2022-07-23T02:15:50;7.43;;;6.28;;
57107;SDS011;42987;52.916;6.542;2022-07-23T02:18:16;8.38;;;5.35;;
57107;SDS011;42987;52.916;6.542;2022-07-23T02:20:41;7.05;;;5.65;;
57107;SDS011;42987;52.916;6.542;2022-07-23T02:23:12;5.78;;;4.72;;
57107;SDS011;42987;52.916;6.542;2022-07-23T02:25:38;7.80;;;5.43;;
57107;SDS011;42987;52.916;6.542;2022-07-23T02:28:04;10.13;;;7.35;;
57107;SDS011;42987;52.916;6.542;2022-07-23T02:30:31;17.50;;;9.45;;
57107;SDS011;42987;52.916;6.542;2022-07-23T02:32:56;11.20;;;6.82;;
57107;SDS011;42987;52.916;6.542;2022-07-23T02:35:23;9.32;;;6.47;;
57107;SDS011;42987;52.916;6.542;2022-07-23T02:37:53;7.03;;;4.93;;
57107;SDS011;42987;52.916;6.542;2022-07-23T02:40:19;7.97;;;5.82;;
57107;SDS011;42987;52.916;6.542;2022-07-23T02:42:45;5.05;;;4.38;;
57107;SDS011;42987;52.916;6.542;2022-07-23T02:45:11;7.32;;;5.05;;
57107;SDS011;42987;52.916;6.542;2022-07-23T02:47:37;8.77;;;6.43;;
57107;SDS011;42987;52.916;6.542;2022-07-23T02:50:03;11.43;;;5.57;;
57107;SDS011;42987;52.916;6.542;2022-07-23T02:52:30;14.05;;;6.75;;
57107;SDS011;42987;52.916;6.542;2022-07-23T02:54:56;6.13;;;4.22;;
57107;SDS011;42987;52.916;6.542;2022-07-23T02:57:25;5.40;;;4.53;;
57107;SDS011;42987;52.916;6.542;2022-07-23T02:59:50;5.93;;;5.22;;
57107;SDS011;42987;52.916;6.542;2022-07-23T03:02:16;8.25;;;6.10;;
57107;SDS011;42987;52.916;6.542;2022-07-23T03:04:42;5.38;;;4.32;;
57107;SDS011;42987;52.916;6.542;2022-07-23T03:07:08;5.03;;;3.78;;
57107;SDS011;42987;52.916;6.542;2022-07-23T03:09:34;10.75;;;5.55;;
57107;SDS011;42987;52.916;6.542;2022-07-23T03:12:00;11.02;;;5.88;;
57107;SDS011;42987;52.916;6.542;2022-07-23T03:14:25;10.23;;;5.38;;
57107;SDS011;42987;52.916;6.542;2022-07-23T03:16:52;12.02;;;6.85;;
57107;SDS011;42987;52.916;6.542;2022-07-23T03:19:21;14.27;;;6.38;;
57107;SDS011;42987;52.916;6.542;2022-07-23T03:21:47;8.27;;;6.00;;
57107;SDS011;42987;52.916;6.542;2022-07-23T03:24:13;5.95;;;4.05;;
57107;SDS011;42987;52.916;6.542;2022-07-23T03:26:38;5.22;;;3.40;;
57107;SDS011;42987;52.916;6.542;2022-07-23T03:29:04;4.13;;;3.15;;
57107;SDS011;42987;52.916;6.542;2022-07-23T03:31:31;6.20;;;2.85;;
57107;SDS011;42987;52.916;6.542;2022-07-23T03:33:59;6.13;;;3.65;;
57107;SDS011;42987;52.916;6.542;2022-07-23T03:36:25;4.22;;;3.03;;
57107;SDS011;42987;52.916;6.542;2022-07-23T03:38:52;4.15;;;3.10;;
57107;SDS011;42987;52.916;6.542;2022-07-23T03:41:21;4.18;;;3.25;;
57107;SDS011;42987;52.916;6.542;2022-07-23T03:43:47;4.00;;;2.92;;
57107;SDS011;42987;52.916;6.542;2022-07-23T03:46:13;6.05;;;4.20;;
57107;SDS011;42987;52.916;6.542;2022-07-23T03:48:39;5.75;;;3.88;;
57107;SDS011;42987;52.916;6.542;2022-07-23T03:51:05;4.97;;;3.92;;
57107;SDS011;42987;52.916;6.542;2022-07-23T03:53:31;6.57;;;4.65;;
57107;SDS011;42987;52.916;6.542;2022-07-23T03:55:57;5.15;;;4.20;;
57107;SDS011;42987;52.916;6.542;2022-07-23T03:58:22;6.43;;;5.15;;
57107;SDS011;42987;52.916;6.542;2022-07-23T04:00:48;5.30;;;4.28;;
57107;SDS011;42987;52.916;6.542;2022-07-23T04:03:14;6.55;;;4.47;;
57107;SDS011;42987;52.916;6.542;2022-07-23T04:05:40;9.45;;;7.47;;
57107;SDS011;42987;52.916;6.542;2022-07-23T04:08:06;9.23;;;6.18;;
57107;SDS011;42987;52.916;6.542;2022-07-23T04:10:32;13.32;;;8.38;;
57107;SDS011;42987;52.916;6.542;2022-07-23T04:12:57;8.13;;;6.93;;
57107;SDS011;42987;52.916;6.542;2022-07-23T04:15:23;10.15;;;6.90;;
57107;SDS011;42987;52.916;6.542;2022-07-23T04:17:49;13.93;;;8.93;;
57107;SDS011;42987;52.916;6.542;2022-07-23T04:20:15;12.60;;;9.07;;
57107;SDS011;42987;52.916;6.542;2022-07-23T04:22:44;8.20;;;6.22;;
57107;SDS011;42987;52.916;6.542;2022-07-23T04:25:10;12.55;;;7.90;;
57107;SDS011;42987;52.916;6.542;2022-07-23T04:27:36;10.68;;;7.20;;
57107;SDS011;42987;52.916;6.542;2022-07-23T04:30:02;6.38;;;5.50;;
57107;SDS011;42987;52.916;6.542;2022-07-23T04:32:28;5.20;;;4.70;;
57107;SDS011;42987;52.916;6.542;2022-07-23T04:34:54;7.22;;;5.13;;
57107;SDS011;42987;52.916;6.542;2022-07-23T04:37:20;6.25;;;4.63;;
57107;SDS011;42987;52.916;6.542;2022-07-23T04:39:51;7.32;;;4.70;;
57107;SDS011;42987;52.916;6.542;2022-07-23T04:42:20;5.97;;;4.80;;
57107;SDS011;42987;52.916;6.542;2022-07-23T04:44:46;8.52;;;6.32;;
57107;SDS011;42987;52.916;6.542;2022-07-23T04:47:12;6.97;;;4.65;;
57107;SDS011;42987;52.916;6.542;2022-07-23T04:49:38;7.30;;;5.78;;
57107;SDS011;42987;52.916;6.542;2022-07-23T04:52:04;6.65;;;5.53;;
57107;SDS011;42987;52.916;6.542;2022-07-23T04:54:29;7.40;;;5.93;;
57107;SDS011;42987;52.916;6.542;2022-07-23T04:56:55;7.93;;;6.38;;
57107;SDS011;42987;52.916;6.542;2022-07-23T04:59:21;7.47;;;6.30;;
57107;SDS011;42987;52.916;6.542;2022-07-23T05:01:50;6.95;;;5.97;;
57107;SDS011;42987;52.916;6.542;2022-07-23T05:04:16;12.48;;;8.23;;
57107;SDS011;42987;52.916;6.542;2022-07-23T05:06:42;9.07;;;7.03;;
57107;SDS011;42987;52.916;6.542;2022-07-23T05:09:08;11.05;;;7.25;;
57107;SDS011;42987;52.916;6.542;2022-07-23T05:11:33;8.75;;;6.93;;
57107;SDS011;42987;52.916;6.542;2022-07-23T05:13:59;9.23;;;6.47;;
57107;SDS011;42987;52.916;6.542;2022-07-23T05:16:25;11.55;;;7.22;;
57107;SDS011;42987;52.916;6.542;2022-07-23T05:18:51;9.68;;;7.03;;
57107;SDS011;42987;52.916;6.542;2022-07-23T05:21:20;13.43;;;7.85;;
57107;SDS011;42987;52.916;6.542;2022-07-23T05:23:46;14.88;;;8.40;;
57107;SDS011;42987;52.916;6.542;2022-07-23T05:26:11;16.48;;;8.77;;
57107;SDS011;42987;52.916;6.542;2022-07-23T05:28:37;11.30;;;7.63;;
57107;SDS011;42987;52.916;6.542;2022-07-23T05:31:03;12.75;;;8.00;;
57107;SDS011;42987;52.916;6.542;2022-07-23T05:33:29;10.63;;;8.30;;
57107;SDS011;42987;52.916;6.542;2022-07-23T05:36:04;9.88;;;8.25;;
57107;SDS011;42987;52.916;6.542;2022-07-23T05:38:32;11.10;;;8.25;;
57107;SDS011;42987;52.916;6.542;2022-07-23T05:40:58;10.07;;;7.70;;
57107;SDS011;42987;52.916;6.542;2022-07-23T05:43:27;11.57;;;8.63;;
57107;SDS011;42987;52.916;6.542;2022-07-23T05:45:53;11.95;;;8.50;;
57107;SDS011;42987;52.916;6.542;2022-07-23T05:48:23;9.48;;;8.48;;
57107;SDS011;42987;52.916;6.542;2022-07-23T05:50:52;12.13;;;9.48;;
57107;SDS011;42987;52.916;6.542;2022-07-23T05:53:19;8.77;;;7.30;;
57107;SDS011;42987;52.916;6.542;2022-07-23T05:55:45;14.55;;;9.55;;
57107;SDS011;42987;52.916;6.542;2022-07-23T05:58:11;14.00;;;6.93;;
57107;SDS011;42987;52.916;6.542;2022-07-23T06:00:37;12.07;;;7.47;;
57107;SDS011;42987;52.916;6.542;2022-07-23T06:03:03;8.40;;;6.30;;
57107;SDS011;42987;52.916;6.542;2022-07-23T06:05:29;8.40;;;6.28;;
57107;SDS011;42987;52.916;6.542;2022-07-23T06:07:54;7.63;;;5.53;;
57107;SDS011;42987;52.916;6.542;2022-07-23T06:10:23;8.30;;;5.35;;
57107;SDS011;42987;52.916;6.542;2022-07-23T06:12:49;9.07;;;6.47;;
57107;SDS011;42987;52.916;6.542;2022-07-23T06:15:15;8.35;;;6.38;;
57107;SDS011;42987;52.916;6.542;2022-07-23T06:17:41;5.90;;;5.30;;
57107;SDS011;42987;52.916;6.542;2022-07-23T06:20:07;8.85;;;5.68;;
57107;SDS011;42987;52.916;6.542;2022-07-23T06:22:34;9.27;;;5.90;;
57107;SDS011;42987;52.916;6.542;2022-07-23T06:25:01;7.15;;;5.07;;
57107;SDS011;42987;52.916;6.542;2022-07-23T06:27:27;7.90;;;5.25;;
57107;SDS011;42987;52.916;6.542;2022-07-23T06:29:52;8.57;;;4.78;;
57107;SDS011;42987;52.916;6.542;2022-07-23T06:32:19;6.60;;;4.82;;
57107;SDS011;42987;52.916;6.542;2022-07-23T06:34:45;6.32;;;3.90;;
57107;SDS011;42987;52.916;6.542;2022-07-23T06:37:10;6.68;;;3.20;;
57107;SDS011;42987;52.916;6.542;2022-07-23T06:39:36;7.57;;;3.15;;
57107;SDS011;42987;52.916;6.542;2022-07-23T06:42:02;6.00;;;3.28;;
57107;SDS011;42987;52.916;6.542;2022-07-23T06:44:28;4.75;;;3.00;;
57107;SDS011;42987;52.916;6.542;2022-07-23T06:46:55;3.83;;;2.15;;
57107;SDS011;42987;52.916;6.542;2022-07-23T06:49:20;4.18;;;2.10;;
57107;SDS011;42987;52.916;6.542;2022-07-23T06:51:46;5.15;;;2.20;;
57107;SDS011;42987;52.916;6.542;2022-07-23T06:54:12;4.45;;;2.15;;
57107;SDS011;42987;52.916;6.542;2022-07-23T06:56:38;4.38;;;2.03;;
57107;SDS011;42987;52.916;6.542;2022-07-23T06:59:04;6.43;;;2.38;;
57107;SDS011;42987;52.916;6.542;2022-07-23T07:01:30;3.97;;;1.95;;
57107;SDS011;42987;52.916;6.542;2022-07-23T07:03:56;3.35;;;1.70;;
57107;SDS011;42987;52.916;6.542;2022-07-23T07:06:25;4.55;;;1.85;;
57107;SDS011;42987;52.916;6.542;2022-07-23T07:08:51;4.53;;;1.58;;
57107;SDS011;42987;52.916;6.542;2022-07-23T07:11:17;3.80;;;1.70;;
57107;SDS011;42987;52.916;6.542;2022-07-23T07:13:42;4.13;;;1.90;;
57107;SDS011;42987;52.916;6.542;2022-07-23T07:16:08;4.80;;;1.65;;
57107;SDS011;42987;52.916;6.542;2022-07-23T07:18:34;3.55;;;1.83;;
57107;SDS011;42987;52.916;6.542;2022-07-23T07:21:00;2.90;;;1.48;;
57107;SDS011;42987;52.916;6.542;2022-07-23T07:23:26;2.35;;;1.40;;
57107;SDS011;42987;52.916;6.542;2022-07-23T07:25:52;4.53;;;1.90;;
57107;SDS011;42987;52.916;6.542;2022-07-23T07:28:21;6.10;;;1.65;;
57107;SDS011;42987;52.916;6.542;2022-07-23T07:30:49;2.33;;;0.90;;
57107;SDS011;42987;52.916;6.542;2022-07-23T07:33:15;4.38;;;1.30;;
57107;SDS011;42987;52.916;6.542;2022-07-23T07:35:41;2.75;;;0.90;;
57107;SDS011;42987;52.916;6.542;2022-07-23T07:38:07;3.05;;;0.77;;
57107;SDS011;42987;52.916;6.542;2022-07-23T07:40:37;1.83;;;0.80;;
57107;SDS011;42987;52.916;6.542;2022-07-23T07:43:05;1.58;;;0.70;;
57107;SDS011;42987;52.916;6.542;2022-07-23T07:45:31;2.03;;;0.73;;
57107;SDS011;42987;52.916;6.542;2022-07-23T07:48:06;1.15;;;0.60;;
57107;SDS011;42987;52.916;6.542;2022-07-23T07:50:34;2.75;;;0.70;;
57107;SDS011;42987;52.916;6.542;2022-07-23T07:53:00;1.63;;;0.63;;
57107;SDS011;42987;52.916;6.542;2022-07-23T07:55:26;1.92;;;0.60;;
57107;SDS011;42987;52.916;6.542;2022-07-23T07:57:53;1.55;;;0.50;;
57107;SDS011;42987;52.916;6.542;2022-07-23T08:00:19;3.28;;;1.17;;
57107;SDS011;42987;52.916;6.542;2022-07-23T08:02:46;1.85;;;0.55;;
57107;SDS011;42987;52.916;6.542;2022-07-23T08:05:13;3.05;;;0.70;;
57107;SDS011;42987;52.916;6.542;2022-07-23T08:07:42;2.10;;;0.57;;
57107;SDS011;42987;52.916;6.542;2022-07-23T08:10:08;3.55;;;1.00;;
57107;SDS011;42987;52.916;6.542;2022-07-23T08:12:39;1.88;;;0.60;;
57107;SDS011;42987;52.916;6.542;2022-07-23T08:15:16;1.90;;;0.60;;
57107;SDS011;42987;52.916;6.542;2022-07-23T08:17:43;3.05;;;0.70;;
57107;SDS011;42987;52.916;6.542;2022-07-23T08:20:10;1.65;;;0.75;;
57107;SDS011;42987;52.916;6.542;2022-07-23T08:22:57;1.48;;;0.75;;
57107;SDS011;42987;52.916;6.542;2022-07-23T08:25:32;1.67;;;0.60;;
57107;SDS011;42987;52.916;6.542;2022-07-23T08:28:02;2.22;;;0.60;;
57107;SDS011;42987;52.916;6.542;2022-07-23T08:30:30;3.92;;;0.75;;
57107;SDS011;42987;52.916;6.542;2022-07-23T08:33:04;1.23;;;0.55;;
57107;SDS011;42987;52.916;6.542;2022-07-23T08:35:34;3.20;;;0.50;;
57107;SDS011;42987;52.916;6.542;2022-07-23T08:38:02;3.72;;;0.50;;
57107;SDS011;42987;52.916;6.542;2022-07-23T08:40:31;1.75;;;0.70;;
57107;SDS011;42987;52.916;6.542;2022-07-23T08:42:58;1.88;;;0.80;;
57107;SDS011;42987;52.916;6.542;2022-07-23T08:45:26;1.77;;;0.70;;
57107;SDS011;42987;52.916;6.542;2022-07-23T08:47:54;1.35;;;0.60;;
57107;SDS011;42987;52.916;6.542;2022-07-23T08:50:22;1.77;;;0.60;;
57107;SDS011;42987;52.916;6.542;2022-07-23T08:52:49;2.08;;;0.40;;
57107;SDS011;42987;52.916;6.542;2022-07-23T08:55:17;1.27;;;0.60;;
57107;SDS011;42987;52.916;6.542;2022-07-23T08:57:44;2.05;;;0.50;;
57107;SDS011;42987;52.916;6.542;2022-07-23T09:00:13;3.08;;;0.73;;
57107;SDS011;42987;52.916;6.542;2022-07-23T09:02:41;0.52;;;0.47;;
57107;SDS011;42987;52.916;6.542;2022-07-23T09:05:08;1.02;;;0.38;;
57107;SDS011;42987;52.916;6.542;2022-07-23T09:07:37;1.73;;;0.60;;
57107;SDS011;42987;52.916;6.542;2022-07-23T09:10:25;1.15;;;0.50;;
57107;SDS011;42987;52.916;6.542;2022-07-23T09:12:51;2.85;;;0.77;;
57107;SDS011;42987;52.916;6.542;2022-07-23T09:15:20;1.23;;;0.60;;
57107;SDS011;42987;52.916;6.542;2022-07-23T09:17:46;1.52;;;0.40;;
57107;SDS011;42987;52.916;6.542;2022-07-23T09:20:13;1.38;;;0.57;;
57107;SDS011;42987;52.916;6.542;2022-07-23T09:22:44;1.90;;;0.80;;
57107;SDS011;42987;52.916;6.542;2022-07-23T09:25:13;2.22;;;0.63;;
57107;SDS011;42987;52.916;6.542;2022-07-23T09:30:27;1.88;;;0.57;;
57107;SDS011;42987;52.916;6.542;2022-07-23T09:33:13;1.35;;;0.70;;
57107;SDS011;42987;52.916;6.542;2022-07-23T09:35:52;1.70;;;0.60;;
57107;SDS011;42987;52.916;6.542;2022-07-23T09:38:20;1.52;;;0.63;;
57107;SDS011;42987;52.916;6.542;2022-07-23T09:41:06;2.85;;;0.57;;
57107;SDS011;42987;52.916;6.542;2022-07-23T09:43:35;2.53;;;0.60;;
57107;SDS011;42987;52.916;6.542;2022-07-23T09:46:17;2.00;;;0.60;;
57107;SDS011;42987;52.916;6.542;2022-07-23T09:48:44;2.10;;;0.73;;
57107;SDS011;42987;52.916;6.542;2022-07-23T09:51:10;10.80;;;1.30;;
57107;SDS011;42987;52.916;6.542;2022-07-23T09:53:36;1.92;;;0.70;;
57107;SDS011;42987;52.916;6.542;2022-07-23T09:56:01;1.30;;;0.77;;
57107;SDS011;42987;52.916;6.542;2022-07-23T09:58:28;1.35;;;0.80;;
57107;SDS011;42987;52.916;6.542;2022-07-23T10:00:55;1.42;;;0.60;;
57107;SDS011;42987;52.916;6.542;2022-07-23T10:03:22;2.67;;;0.60;;
57107;SDS011;42987;52.916;6.542;2022-07-23T10:05:49;1.90;;;0.70;;
57107;SDS011;42987;52.916;6.542;2022-07-23T10:08:17;2.08;;;0.55;;
57107;SDS011;42987;52.916;6.542;2022-07-23T10:10:47;3.05;;;1.10;;
57107;SDS011;42987;52.916;6.542;2022-07-23T10:13:15;3.17;;;0.68;;
57107;SDS011;42987;52.916;6.542;2022-07-23T10:15:53;1.25;;;0.70;;
57107;SDS011;42987;52.916;6.542;2022-07-23T10:18:19;3.38;;;0.95;;
57107;SDS011;42987;52.916;6.542;2022-07-23T10:20:47;1.23;;;0.50;;
57107;SDS011;42987;52.916;6.542;2022-07-23T10:34:24;1.45;;;0.80;;
57107;SDS011;42987;52.916;6.542;2022-07-23T10:36:56;1.52;;;0.90;;
57107;SDS011;42987;52.916;6.542;2022-07-23T10:39:41;2.40;;;1.17;;
57107;SDS011;42987;52.916;6.542;2022-07-23T10:42:11;2.17;;;0.90;;
57107;SDS011;42987;52.916;6.542;2022-07-23T10:44:46;4.13;;;0.90;;
57107;SDS011;42987;52.916;6.542;2022-07-23T10:47:26;1.98;;;0.90;;
57107;SDS011;42987;52.916;6.542;2022-07-23T10:49:53;1.17;;;0.80;;
57107;SDS011;42987;52.916;6.542;2022-07-23T10:52:39;2.95;;;0.93;;
57107;SDS011;42987;52.916;6.542;2022-07-23T10:57:46;2.38;;;1.20;;
57107;SDS011;42987;52.916;6.542;2022-07-23T11:00:14;3.92;;;1.13;;
57107;SDS011;42987;52.916;6.542;2022-07-23T11:02:45;2.50;;;1.00;;
57107;SDS011;42987;52.916;6.542;2022-07-23T11:05:19;4.93;;;1.00;;
57107;SDS011;42987;52.916;6.542;2022-07-23T11:10:36;2.70;;;1.10;;
57107;SDS011;42987;52.916;6.542;2022-07-23T11:34:49;2.20;;;1.30;;
57107;SDS011;42987;52.916;6.542;2022-07-23T11:37:27;2.78;;;1.20;;
57107;SDS011;42987;52.916;6.542;2022-07-23T11:39:58;2.10;;;1.38;;
57107;SDS011;42987;52.916;6.542;2022-07-23T11:42:24;2.50;;;1.30;;
57107;SDS011;42987;52.916;6.542;2022-07-23T11:44:50;4.43;;;1.73;;
57107;SDS011;42987;52.916;6.542;2022-07-23T11:47:21;1.80;;;1.30;;
57107;SDS011;42987;52.916;6.542;2022-07-23T11:49:52;3.33;;;1.55;;
57107;SDS011;42987;52.916;6.542;2022-07-23T11:52:19;3.08;;;1.48;;
57107;SDS011;42987;52.916;6.542;2022-07-23T11:54:47;4.03;;;1.63;;
57107;SDS011;42987;52.916;6.542;2022-07-23T11:57:13;3.78;;;1.80;;
57107;SDS011;42987;52.916;6.542;2022-07-23T11:59:39;3.75;;;1.80;;
57107;SDS011;42987;52.916;6.542;2022-07-23T12:02:06;2.35;;;1.30;;
57107;SDS011;42987;52.916;6.542;2022-07-23T12:07:04;2.70;;;1.40;;
57107;SDS011;42987;52.916;6.542;2022-07-23T12:12:46;3.42;;;1.40;;
57107;SDS011;42987;52.916;6.542;2022-07-23T12:15:23;2.22;;;1.10;;
57107;SDS011;42987;52.916;6.542;2022-07-23T12:17:55;3.58;;;1.45;;
57107;SDS011;42987;52.916;6.542;2022-07-23T12:20:22;3.70;;;1.25;;
57107;SDS011;42987;52.916;6.542;2022-07-23T12:22:57;3.55;;;1.58;;
57107;SDS011;42987;52.916;6.542;2022-07-23T12:25:25;4.57;;;1.60;;
57107;SDS011;42987;52.916;6.542;2022-07-23T12:28:09;3.45;;;1.88;;
57107;SDS011;42987;52.916;6.542;2022-07-23T12:30:50;2.83;;;1.65;;
57107;SDS011;42987;52.916;6.542;2022-07-23T12:33:29;3.22;;;1.70;;
57107;SDS011;42987;52.916;6.542;2022-07-23T12:35:58;4.00;;;1.70;;
57107;SDS011;42987;52.916;6.542;2022-07-23T12:38:26;3.25;;;1.90;;
57107;SDS011;42987;52.916;6.542;2022-07-23T12:41:00;3.78;;;1.88;;
57107;SDS011;42987;52.916;6.542;2022-07-23T12:46:02;2.97;;;1.48;;
57107;SDS011;42987;52.916;6.542;2022-07-23T12:48:39;2.83;;;1.83;;
57107;SDS011;42987;52.916;6.542;2022-07-23T12:51:16;2.53;;;1.58;;
57107;SDS011;42987;52.916;6.542;2022-07-23T12:53:49;3.78;;;1.70;;
57107;SDS011;42987;52.916;6.542;2022-07-23T12:56:22;4.57;;;1.67;;
57107;SDS011;42987;52.916;6.542;2022-07-23T12:58:58;3.38;;;1.90;;
57107;SDS011;42987;52.916;6.542;2022-07-23T13:01:32;3.55;;;1.50;;
57107;SDS011;42987;52.916;6.542;2022-07-23T13:06:52;5.35;;;2.25;;
57107;SDS011;42987;52.916;6.542;2022-07-23T13:09:21;5.38;;;1.92;;
57107;SDS011;42987;52.916;6.542;2022-07-23T13:11:49;2.38;;;1.63;;
57107;SDS011;42987;52.916;6.542;2022-07-23T13:14:16;2.47;;;1.80;;
57107;SDS011;42987;52.916;6.542;2022-07-23T13:16:43;3.85;;;1.80;;
57107;SDS011;42987;52.916;6.542;2022-07-23T13:19:10;3.30;;;1.90;;
57107;SDS011;42987;52.916;6.542;2022-07-23T13:21:35;3.72;;;1.85;;
57107;SDS011;42987;52.916;6.542;2022-07-23T13:24:01;3.00;;;1.73;;
57107;SDS011;42987;52.916;6.542;2022-07-23T13:26:27;3.78;;;2.15;;
57107;SDS011;42987;52.916;6.542;2022-07-23T13:28:53;2.40;;;1.80;;
57107;SDS011;42987;52.916;6.542;2022-07-23T13:31:19;3.15;;;1.83;;
57107;SDS011;42987;52.916;6.542;2022-07-23T13:33:45;3.50;;;1.70;;
57107;SDS011;42987;52.916;6.542;2022-07-23T13:36:11;3.03;;;1.90;;
57107;SDS011;42987;52.916;6.542;2022-07-23T13:38:37;3.20;;;1.67;;
57107;SDS011;42987;52.916;6.542;2022-07-23T13:41:04;3.17;;;1.70;;
57107;SDS011;42987;52.916;6.542;2022-07-23T13:43:30;3.53;;;1.60;;
57107;SDS011;42987;52.916;6.542;2022-07-23T13:45:56;3.05;;;1.60;;
57107;SDS011;42987;52.916;6.542;2022-07-23T13:48:22;2.67;;;1.60;;
57107;SDS011;42987;52.916;6.542;2022-07-23T13:50:53;3.13;;;1.40;;
57107;SDS011;42987;52.916;6.542;2022-07-23T13:53:20;2.72;;;1.27;;
57107;SDS011;42987;52.916;6.542;2022-07-23T13:55:51;3.75;;;1.50;;
57107;SDS011;42987;52.916;6.542;2022-07-23T13:58:21;2.83;;;1.48;;
57107;SDS011;42987;52.916;6.542;2022-07-23T14:00:48;2.35;;;1.67;;
57107;SDS011;42987;52.916;6.542;2022-07-23T14:03:16;2.47;;;1.30;;
57107;SDS011;42987;52.916;6.542;2022-07-23T14:05:50;2.53;;;1.50;;
57107;SDS011;42987;52.916;6.542;2022-07-23T14:08:20;3.47;;;1.50;;
57107;SDS011;42987;52.916;6.542;2022-07-23T14:10:46;3.17;;;1.55;;
57107;SDS011;42987;52.916;6.542;2022-07-23T14:13:12;2.13;;;1.10;;
57107;SDS011;42987;52.916;6.542;2022-07-23T14:15:38;4.53;;;1.40;;
57107;SDS011;42987;52.916;6.542;2022-07-23T14:18:05;6.95;;;1.55;;
57107;SDS011;42987;52.916;6.542;2022-07-23T14:20:37;1.55;;;1.20;;
57107;SDS011;42987;52.916;6.542;2022-07-23T14:23:02;2.27;;;1.50;;
57107;SDS011;42987;52.916;6.542;2022-07-23T14:25:28;3.40;;;1.60;;
57107;SDS011;42987;52.916;6.542;2022-07-23T14:27:54;2.75;;;1.63;;
57107;SDS011;42987;52.916;6.542;2022-07-23T14:30:21;4.78;;;1.70;;
57107;SDS011;42987;52.916;6.542;2022-07-23T14:32:49;3.50;;;1.75;;
57107;SDS011;42987;52.916;6.542;2022-07-23T14:35:15;2.45;;;1.30;;
57107;SDS011;42987;52.916;6.542;2022-07-23T14:37:41;2.33;;;1.30;;
57107;SDS011;42987;52.916;6.542;2022-07-23T14:40:07;4.63;;;1.50;;
57107;SDS011;42987;52.916;6.542;2022-07-23T14:42:33;2.63;;;1.58;;
57107;SDS011;42987;52.916;6.542;2022-07-23T14:44:59;2.50;;;1.30;;
57107;SDS011;42987;52.916;6.542;2022-07-23T14:47:25;3.60;;;1.33;;
57107;SDS011;42987;52.916;6.542;2022-07-23T14:49:50;3.63;;;1.42;;
57107;SDS011;42987;52.916;6.542;2022-07-23T14:52:16;1.95;;;1.33;;
57107;SDS011;42987;52.916;6.542;2022-07-23T14:54:42;2.92;;;1.40;;
57107;SDS011;42987;52.916;6.542;2022-07-23T14:57:08;3.20;;;1.27;;
57107;SDS011;42987;52.916;6.542;2022-07-23T14:59:34;2.22;;;1.40;;
57107;SDS011;42987;52.916;6.542;2022-07-23T15:02:00;2.00;;;1.15;;
57107;SDS011;42987;52.916;6.542;2022-07-23T15:04:28;3.60;;;1.40;;
57107;SDS011;42987;52.916;6.542;2022-07-23T15:06:54;2.15;;;1.30;;
57107;SDS011;42987;52.916;6.542;2022-07-23T15:09:22;2.53;;;1.38;;
57107;SDS011;42987;52.916;6.542;2022-07-23T15:11:48;3.78;;;1.40;;
57107;SDS011;42987;52.916;6.542;2022-07-23T15:14:14;2.45;;;1.50;;
57107;SDS011;42987;52.916;6.542;2022-07-23T15:16:40;2.38;;;1.45;;
57107;SDS011;42987;52.916;6.542;2022-07-23T15:19:06;2.80;;;1.13;;
57107;SDS011;42987;52.916;6.542;2022-07-23T15:21:31;3.80;;;1.23;;
57107;SDS011;42987;52.916;6.542;2022-07-23T15:23:57;2.38;;;1.52;;
57107;SDS011;42987;52.916;6.542;2022-07-23T15:26:24;4.07;;;1.50;;
57107;SDS011;42987;52.916;6.542;2022-07-23T15:28:51;2.47;;;1.10;;
57107;SDS011;42987;52.916;6.542;2022-07-23T15:31:20;2.88;;;1.42;;
57107;SDS011;42987;52.916;6.542;2022-07-23T15:33:55;3.90;;;1.50;;
57107;SDS011;42987;52.916;6.542;2022-07-23T15:36:21;2.95;;;1.60;;
57107;SDS011;42987;52.916;6.542;2022-07-23T15:38:46;1.92;;;1.20;;
57107;SDS011;42987;52.916;6.542;2022-07-23T15:41:12;2.40;;;1.40;;